sensor_id;sensor_type;location;lat;lon;timestamp;P1;durP1;ratioP1;P2;durP2;ratioP2
11086;SDS011;5597;47.588;9.642;2022-08-19T00:01:20;5.80;;;5.40;;
11086;SDS011;5597;47.588;9.642;2022-08-19T00:03:46;8.17;;;6.77;;
11086;SDS011;5597;47.588;9.642;2022-08-19T00:06:12;6.30;;;5.80;;
11086;SDS011;5597;47.588;9.642;2022-08-19T00:08:38;7.10;;;6.40;;
11086;SDS011;5597;47.588;9.642;2022-08-19T00:11:04;6.73;;;6.13;;
11086;SDS011;5597;47.588;9.642;2022-08-19T00:13:30;6.60;;;6.00;;
11086;SDS011;5597;47.588;9.642;2022-08-19T00:15:56;6.87;;;6.27;;
11086;SDS011;5597;47.588;9.642;2022-08-19T00:18:23;6.30;;;5.80;;
11086;SDS011;5597;47.588;9.642;2022-08-19T00:20:49;6.83;;;6.30;;
11086;SDS011;5597;47.588;9.642;2022-08-19T00:23:14;6.47;;;5.80;;
11086;SDS011;5597;47.588;9.642;2022-08-19T00:25:40;8.77;;;6.83;;
11086;SDS011;5597;47.588;9.642;2022-08-19T00:28:06;7.23;;;6.63;;
11086;SDS011;5597;47.588;9.642;2022-08-19T00:30:32;7.43;;;6.73;;
11086;SDS011;5597;47.588;9.642;2022-08-19T00:32:57;7.03;;;6.43;;
11086;SDS011;5597;47.588;9.642;2022-08-19T00:35:23;6.23;;;5.73;;
11086;SDS011;5597;47.588;9.642;2022-08-19T00:37:50;6.50;;;6.00;;
11086;SDS011;5597;47.588;9.642;2022-08-19T00:40:16;7.50;;;6.27;;
11086;SDS011;5597;47.588;9.642;2022-08-19T00:42:43;7.50;;;6.80;;
11086;SDS011;5597;47.588;9.642;2022-08-19T00:45:11;7.67;;;6.13;;
11086;SDS011;5597;47.588;9.642;2022-08-19T00:47:42;7.67;;;6.97;;
11086;SDS011;5597;47.588;9.642;2022-08-19T00:50:10;7.83;;;7.13;;
11086;SDS011;5597;47.588;9.642;2022-08-19T00:52:39;7.93;;;7.23;;
11086;SDS011;5597;47.588;9.642;2022-08-19T00:55:10;6.63;;;6.13;;
11086;SDS011;5597;47.588;9.642;2022-08-19T00:57:42;8.10;;;7.40;;
11086;SDS011;5597;47.588;9.642;2022-08-19T01:00:13;7.90;;;7.20;;
11086;SDS011;5597;47.588;9.642;2022-08-19T01:02:41;7.17;;;6.57;;
11086;SDS011;5597;47.588;9.642;2022-08-19T01:05:11;6.60;;;6.10;;
11086;SDS011;5597;47.588;9.642;2022-08-19T01:07:47;7.70;;;7.10;;
11086;SDS011;5597;47.588;9.642;2022-08-19T01:10:19;8.10;;;7.40;;
11086;SDS011;5597;47.588;9.642;2022-08-19T01:12:49;7.70;;;7.00;;
11086;SDS011;5597;47.588;9.642;2022-08-19T01:15:16;8.83;;;8.13;;
11086;SDS011;5597;47.588;9.642;2022-08-19T01:17:46;9.30;;;8.40;;
11086;SDS011;5597;47.588;9.642;2022-08-19T01:20:14;8.73;;;7.90;;
11086;SDS011;5597;47.588;9.642;2022-08-19T01:25:15;9.90;;;8.90;;
11086;SDS011;5597;47.588;9.642;2022-08-19T01:27:45;9.50;;;8.60;;
11086;SDS011;5597;47.588;9.642;2022-08-19T01:30:14;9.90;;;9.00;;
11086;SDS011;5597;47.588;9.642;2022-08-19T01:32:45;10.60;;;9.70;;
11086;SDS011;5597;47.588;9.642;2022-08-19T01:35:11;11.20;;;10.20;;
11086;SDS011;5597;47.588;9.642;2022-08-19T01:40:11;10.23;;;9.33;;
11086;SDS011;5597;47.588;9.642;2022-08-19T01:42:37;11.80;;;10.80;;
11086;SDS011;5597;47.588;9.642;2022-08-19T01:45:03;9.90;;;9.00;;
11086;SDS011;5597;47.588;9.642;2022-08-19T01:47:29;9.87;;;9.00;;
11086;SDS011;5597;47.588;9.642;2022-08-19T01:49:55;11.80;;;10.60;;
11086;SDS011;5597;47.588;9.642;2022-08-19T01:52:22;10.37;;;9.47;;
11086;SDS011;5597;47.588;9.642;2022-08-19T01:54:48;11.43;;;10.40;;
11086;SDS011;5597;47.588;9.642;2022-08-19T01:57:14;10.63;;;9.73;;
11086;SDS011;5597;47.588;9.642;2022-08-19T01:59:40;11.43;;;10.43;;
11086;SDS011;5597;47.588;9.642;2022-08-19T02:02:07;11.03;;;10.13;;
11086;SDS011;5597;47.588;9.642;2022-08-19T02:04:33;10.47;;;9.57;;
11086;SDS011;5597;47.588;9.642;2022-08-19T02:07:00;9.90;;;9.00;;
11086;SDS011;5597;47.588;9.642;2022-08-19T02:09:25;9.20;;;8.40;;
11086;SDS011;5597;47.588;9.642;2022-08-19T02:11:51;9.93;;;9.03;;
11086;SDS011;5597;47.588;9.642;2022-08-19T02:14:17;9.80;;;8.90;;
11086;SDS011;5597;47.588;9.642;2022-08-19T02:16:42;9.97;;;9.07;;
11086;SDS011;5597;47.588;9.642;2022-08-19T02:19:08;10.27;;;9.27;;
11086;SDS011;5597;47.588;9.642;2022-08-19T02:21:35;10.57;;;9.67;;
11086;SDS011;5597;47.588;9.642;2022-08-19T02:24:01;9.47;;;8.73;;
11086;SDS011;5597;47.588;9.642;2022-08-19T02:26:27;9.93;;;9.13;;
11086;SDS011;5597;47.588;9.642;2022-08-19T02:28:54;11.00;;;9.97;;
11086;SDS011;5597;47.588;9.642;2022-08-19T02:31:21;11.30;;;10.20;;
11086;SDS011;5597;47.588;9.642;2022-08-19T02:33:49;11.97;;;10.87;;
11086;SDS011;5597;47.588;9.642;2022-08-19T02:36:15;11.40;;;10.50;;
11086;SDS011;5597;47.588;9.642;2022-08-19T02:38:42;12.07;;;11.00;;
11086;SDS011;5597;47.588;9.642;2022-08-19T02:41:13;10.80;;;9.80;;
11086;SDS011;5597;47.588;9.642;2022-08-19T02:43:42;12.57;;;11.37;;
11086;SDS011;5597;47.588;9.642;2022-08-19T02:46:21;12.97;;;11.87;;
11086;SDS011;5597;47.588;9.642;2022-08-19T02:48:49;12.97;;;11.77;;
11086;SDS011;5597;47.588;9.642;2022-08-19T02:51:17;14.20;;;12.80;;
11086;SDS011;5597;47.588;9.642;2022-08-19T02:53:46;12.70;;;11.60;;
11086;SDS011;5597;47.588;9.642;2022-08-19T02:56:12;13.47;;;12.27;;
11086;SDS011;5597;47.588;9.642;2022-08-19T02:58:38;15.00;;;13.60;;
11086;SDS011;5597;47.588;9.642;2022-08-19T03:01:04;13.67;;;12.37;;
11086;SDS011;5597;47.588;9.642;2022-08-19T03:03:29;14.30;;;12.90;;
11086;SDS011;5597;47.588;9.642;2022-08-19T03:06:11;14.17;;;12.87;;
11086;SDS011;5597;47.588;9.642;2022-08-19T03:08:38;13.00;;;11.83;;
11086;SDS011;5597;47.588;9.642;2022-08-19T03:11:06;14.10;;;12.90;;
11086;SDS011;5597;47.588;9.642;2022-08-19T03:13:36;13.67;;;12.37;;
11086;SDS011;5597;47.588;9.642;2022-08-19T03:16:04;14.47;;;13.07;;
11086;SDS011;5597;47.588;9.642;2022-08-19T03:18:30;13.33;;;12.13;;
11086;SDS011;5597;47.588;9.642;2022-08-19T03:20:56;12.20;;;11.03;;
11086;SDS011;5597;47.588;9.642;2022-08-19T03:23:21;13.23;;;12.03;;
11086;SDS011;5597;47.588;9.642;2022-08-19T03:25:48;12.20;;;11.20;;
11086;SDS011;5597;47.588;9.642;2022-08-19T03:28:16;13.03;;;11.83;;
11086;SDS011;5597;47.588;9.642;2022-08-19T03:30:42;13.50;;;12.27;;
11086;SDS011;5597;47.588;9.642;2022-08-19T03:33:21;12.10;;;10.90;;
11086;SDS011;5597;47.588;9.642;2022-08-19T03:35:47;12.27;;;11.17;;
11086;SDS011;5597;47.588;9.642;2022-08-19T03:38:36;12.33;;;11.23;;
11086;SDS011;5597;47.588;9.642;2022-08-19T03:41:04;12.47;;;11.27;;
11086;SDS011;5597;47.588;9.642;2022-08-19T03:43:32;12.77;;;11.67;;
11086;SDS011;5597;47.588;9.642;2022-08-19T03:45:59;12.00;;;10.90;;
11086;SDS011;5597;47.588;9.642;2022-08-19T03:48:27;13.40;;;12.13;;
11086;SDS011;5597;47.588;9.642;2022-08-19T03:50:53;12.83;;;11.73;;
11086;SDS011;5597;47.588;9.642;2022-08-19T03:53:18;12.23;;;11.03;;
11086;SDS011;5597;47.588;9.642;2022-08-19T03:55:44;13.37;;;12.17;;
11086;SDS011;5597;47.588;9.642;2022-08-19T03:58:09;12.73;;;11.53;;
11086;SDS011;5597;47.588;9.642;2022-08-19T04:00:36;12.80;;;11.60;;
11086;SDS011;5597;47.588;9.642;2022-08-19T04:03:01;11.50;;;10.50;;
11086;SDS011;5597;47.588;9.642;2022-08-19T04:05:27;11.63;;;10.63;;
11086;SDS011;5597;47.588;9.642;2022-08-19T04:07:54;11.83;;;10.83;;
11086;SDS011;5597;47.588;9.642;2022-08-19T04:10:22;14.03;;;12.73;;
11086;SDS011;5597;47.588;9.642;2022-08-19T04:12:49;14.37;;;13.07;;
11086;SDS011;5597;47.588;9.642;2022-08-19T04:15:14;12.00;;;10.90;;
11086;SDS011;5597;47.588;9.642;2022-08-19T04:17:40;13.20;;;12.00;;
11086;SDS011;5597;47.588;9.642;2022-08-19T04:20:08;11.27;;;10.23;;
11086;SDS011;5597;47.588;9.642;2022-08-19T04:22:34;13.40;;;12.00;;
11086;SDS011;5597;47.588;9.642;2022-08-19T04:25:00;10.87;;;9.93;;
11086;SDS011;5597;47.588;9.642;2022-08-19T04:27:26;10.60;;;9.70;;
11086;SDS011;5597;47.588;9.642;2022-08-19T04:29:51;10.50;;;9.60;;
11086;SDS011;5597;47.588;9.642;2022-08-19T04:32:19;9.43;;;8.63;;
11086;SDS011;5597;47.588;9.642;2022-08-19T04:34:44;10.13;;;9.30;;
11086;SDS011;5597;47.588;9.642;2022-08-19T04:37:10;10.87;;;9.97;;
11086;SDS011;5597;47.588;9.642;2022-08-19T04:39:37;9.83;;;9.03;;
11086;SDS011;5597;47.588;9.642;2022-08-19T04:42:21;9.53;;;8.73;;
11086;SDS011;5597;47.588;9.642;2022-08-19T04:45:06;15.97;;;14.47;;
11086;SDS011;5597;47.588;9.642;2022-08-19T04:47:35;13.20;;;12.07;;
11086;SDS011;5597;47.588;9.642;2022-08-19T04:50:02;13.20;;;12.03;;
11086;SDS011;5597;47.588;9.642;2022-08-19T04:52:28;13.23;;;12.03;;
11086;SDS011;5597;47.588;9.642;2022-08-19T04:54:56;13.20;;;12.00;;
11086;SDS011;5597;47.588;9.642;2022-08-19T04:57:21;14.17;;;12.87;;
11086;SDS011;5597;47.588;9.642;2022-08-19T04:59:47;13.80;;;12.50;;
11086;SDS011;5597;47.588;9.642;2022-08-19T05:02:13;12.20;;;11.10;;
11086;SDS011;5597;47.588;9.642;2022-08-19T05:04:38;12.30;;;11.20;;
11086;SDS011;5597;47.588;9.642;2022-08-19T05:07:05;11.83;;;10.83;;
11086;SDS011;5597;47.588;9.642;2022-08-19T05:09:32;11.27;;;10.27;;
11086;SDS011;5597;47.588;9.642;2022-08-19T05:11:58;10.37;;;9.47;;
11086;SDS011;5597;47.588;9.642;2022-08-19T05:14:24;12.93;;;11.73;;
11086;SDS011;5597;47.588;9.642;2022-08-19T05:16:50;12.17;;;11.07;;
11086;SDS011;5597;47.588;9.642;2022-08-19T05:19:15;13.97;;;12.73;;
11086;SDS011;5597;47.588;9.642;2022-08-19T05:22:00;15.10;;;13.70;;
11086;SDS011;5597;47.588;9.642;2022-08-19T05:24:44;13.33;;;12.07;;
11086;SDS011;5597;47.588;9.642;2022-08-19T05:27:10;12.27;;;11.17;;
11086;SDS011;5597;47.588;9.642;2022-08-19T05:29:35;14.60;;;13.30;;
11086;SDS011;5597;47.588;9.642;2022-08-19T05:32:02;11.90;;;10.80;;
11086;SDS011;5597;47.588;9.642;2022-08-19T05:34:30;12.33;;;11.20;;
11086;SDS011;5597;47.588;9.642;2022-08-19T05:36:58;11.83;;;10.80;;
11086;SDS011;5597;47.588;9.642;2022-08-19T05:39:27;12.67;;;11.47;;
11086;SDS011;5597;47.588;9.642;2022-08-19T05:41:56;12.00;;;11.00;;
11086;SDS011;5597;47.588;9.642;2022-08-19T05:44:25;11.00;;;10.10;;
11086;SDS011;5597;47.588;9.642;2022-08-19T05:46:56;11.93;;;10.93;;
11086;SDS011;5597;47.588;9.642;2022-08-19T05:49:23;10.80;;;9.90;;
11086;SDS011;5597;47.588;9.642;2022-08-19T05:51:50;12.07;;;10.97;;
11086;SDS011;5597;47.588;9.642;2022-08-19T05:54:16;11.47;;;10.47;;
11086;SDS011;5597;47.588;9.642;2022-08-19T05:56:43;12.23;;;11.13;;
11086;SDS011;5597;47.588;9.642;2022-08-19T05:59:09;10.80;;;9.80;;
11086;SDS011;5597;47.588;9.642;2022-08-19T06:01:36;10.23;;;9.33;;
11086;SDS011;5597;47.588;9.642;2022-08-19T06:04:04;10.07;;;9.17;;
11086;SDS011;5597;47.588;9.642;2022-08-19T06:06:30;10.17;;;9.27;;
11086;SDS011;5597;47.588;9.642;2022-08-19T06:08:55;10.37;;;9.47;;
11086;SDS011;5597;47.588;9.642;2022-08-19T06:11:31;14.03;;;12.73;;
11086;SDS011;5597;47.588;9.642;2022-08-19T06:14:01;12.27;;;11.17;;
11086;SDS011;5597;47.588;9.642;2022-08-19T06:16:28;11.87;;;10.70;;
11086;SDS011;5597;47.588;9.642;2022-08-19T06:18:55;13.20;;;11.90;;
11086;SDS011;5597;47.588;9.642;2022-08-19T06:21:26;12.83;;;11.63;;
11086;SDS011;5597;47.588;9.642;2022-08-19T06:23:53;11.97;;;10.90;;
11086;SDS011;5597;47.588;9.642;2022-08-19T06:26:20;13.13;;;11.93;;
11086;SDS011;5597;47.588;9.642;2022-08-19T06:28:46;13.43;;;12.03;;
11086;SDS011;5597;47.588;9.642;2022-08-19T06:31:16;16.60;;;14.87;;
11086;SDS011;5597;47.588;9.642;2022-08-19T06:33:45;19.27;;;17.27;;
11086;SDS011;5597;47.588;9.642;2022-08-19T06:38:55;23.77;;;21.27;;
11086;SDS011;5597;47.588;9.642;2022-08-19T06:41:22;20.47;;;18.37;;
11086;SDS011;5597;47.588;9.642;2022-08-19T06:43:48;21.67;;;19.33;;
11086;SDS011;5597;47.588;9.642;2022-08-19T06:46:14;19.83;;;17.80;;
11086;SDS011;5597;47.588;9.642;2022-08-19T06:48:41;20.77;;;18.57;;
11086;SDS011;5597;47.588;9.642;2022-08-19T06:51:07;23.53;;;21.07;;
11086;SDS011;5597;47.588;9.642;2022-08-19T06:53:33;24.27;;;21.67;;
11086;SDS011;5597;47.588;9.642;2022-08-19T06:55:58;26.67;;;22.13;;
11086;SDS011;5597;47.588;9.642;2022-08-19T06:58:27;21.57;;;18.97;;
11086;SDS011;5597;47.588;9.642;2022-08-19T07:00:57;22.13;;;19.67;;
11086;SDS011;5597;47.588;9.642;2022-08-19T07:03:29;21.63;;;19.20;;
11086;SDS011;5597;47.588;9.642;2022-08-19T07:05:57;20.03;;;17.70;;
11086;SDS011;5597;47.588;9.642;2022-08-19T07:08:27;19.83;;;17.73;;
11086;SDS011;5597;47.588;9.642;2022-08-19T07:10:52;20.40;;;17.77;;
11086;SDS011;5597;47.588;9.642;2022-08-19T07:13:18;19.43;;;17.47;;
11086;SDS011;5597;47.588;9.642;2022-08-19T07:15:44;19.07;;;17.00;;
11086;SDS011;5597;47.588;9.642;2022-08-19T07:18:11;19.50;;;17.27;;
11086;SDS011;5597;47.588;9.642;2022-08-19T07:20:36;20.33;;;18.10;;
11086;SDS011;5597;47.588;9.642;2022-08-19T07:23:04;22.43;;;19.10;;
11086;SDS011;5597;47.588;9.642;2022-08-19T07:25:29;27.07;;;22.07;;
11086;SDS011;5597;47.588;9.642;2022-08-19T07:27:55;25.27;;;21.40;;
11086;SDS011;5597;47.588;9.642;2022-08-19T07:30:20;26.03;;;21.53;;
11086;SDS011;5597;47.588;9.642;2022-08-19T07:32:47;23.20;;;19.80;;
11086;SDS011;5597;47.588;9.642;2022-08-19T07:35:13;22.93;;;19.77;;
11086;SDS011;5597;47.588;9.642;2022-08-19T07:37:38;22.03;;;19.50;;
11086;SDS011;5597;47.588;9.642;2022-08-19T07:40:09;23.40;;;20.87;;
11086;SDS011;5597;47.588;9.642;2022-08-19T07:42:35;24.90;;;21.97;;
11086;SDS011;5597;47.588;9.642;2022-08-19T07:45:00;28.23;;;23.20;;
11086;SDS011;5597;47.588;9.642;2022-08-19T07:47:26;25.67;;;22.57;;
11086;SDS011;5597;47.588;9.642;2022-08-19T07:49:53;24.57;;;21.17;;
11086;SDS011;5597;47.588;9.642;2022-08-19T07:52:18;27.53;;;23.57;;
11086;SDS011;5597;47.588;9.642;2022-08-19T07:54:45;23.50;;;21.00;;
11086;SDS011;5597;47.588;9.642;2022-08-19T07:57:10;26.07;;;21.23;;
11086;SDS011;5597;47.588;9.642;2022-08-19T07:59:36;24.43;;;20.87;;
11086;SDS011;5597;47.588;9.642;2022-08-19T08:02:02;25.00;;;21.67;;
11086;SDS011;5597;47.588;9.642;2022-08-19T08:04:28;27.33;;;24.43;;
11086;SDS011;5597;47.588;9.642;2022-08-19T08:07:13;21.47;;;19.27;;
11086;SDS011;5597;47.588;9.642;2022-08-19T08:09:58;23.20;;;20.00;;
11086;SDS011;5597;47.588;9.642;2022-08-19T08:12:26;21.00;;;18.77;;
11086;SDS011;5597;47.588;9.642;2022-08-19T08:14:56;20.43;;;18.23;;
11086;SDS011;5597;47.588;9.642;2022-08-19T08:17:26;23.67;;;20.80;;
11086;SDS011;5597;47.588;9.642;2022-08-19T08:19:54;20.37;;;18.27;;
11086;SDS011;5597;47.588;9.642;2022-08-19T08:22:20;16.93;;;15.13;;
11086;SDS011;5597;47.588;9.642;2022-08-19T08:25:07;22.33;;;20.03;;
11086;SDS011;5597;47.588;9.642;2022-08-19T08:27:36;21.60;;;19.23;;
11086;SDS011;5597;47.588;9.642;2022-08-19T08:30:04;23.93;;;21.33;;
11086;SDS011;5597;47.588;9.642;2022-08-19T08:32:41;19.80;;;17.77;;
11086;SDS011;5597;47.588;9.642;2022-08-19T08:35:08;20.90;;;18.70;;
11086;SDS011;5597;47.588;9.642;2022-08-19T08:37:36;21.23;;;18.97;;
11086;SDS011;5597;47.588;9.642;2022-08-19T08:40:04;22.03;;;19.67;;
11086;SDS011;5597;47.588;9.642;2022-08-19T08:42:34;22.20;;;19.80;;
11086;SDS011;5597;47.588;9.642;2022-08-19T08:45:05;26.67;;;23.17;;
11086;SDS011;5597;47.588;9.642;2022-08-19T08:47:38;25.60;;;21.87;;
11086;SDS011;5597;47.588;9.642;2022-08-19T08:50:08;22.40;;;19.57;;
11086;SDS011;5597;47.588;9.642;2022-08-19T08:52:41;23.80;;;21.20;;
11086;SDS011;5597;47.588;9.642;2022-08-19T08:55:20;24.73;;;21.23;;
11086;SDS011;5597;47.588;9.642;2022-08-19T08:57:54;22.17;;;19.43;;
11086;SDS011;5597;47.588;9.642;2022-08-19T09:00:36;25.00;;;21.50;;
11086;SDS011;5597;47.588;9.642;2022-08-19T09:03:06;22.33;;;19.93;;
11086;SDS011;5597;47.588;9.642;2022-08-19T09:05:44;22.80;;;20.33;;
11086;SDS011;5597;47.588;9.642;2022-08-19T09:11:19;22.67;;;20.27;;
11086;SDS011;5597;47.588;9.642;2022-08-19T09:14:05;21.73;;;19.40;;
11086;SDS011;5597;47.588;9.642;2022-08-19T09:16:43;24.90;;;22.10;;
11086;SDS011;5597;47.588;9.642;2022-08-19T09:19:09;26.53;;;22.07;;
11086;SDS011;5597;47.588;9.642;2022-08-19T09:21:35;23.83;;;20.10;;
11086;SDS011;5597;47.588;9.642;2022-08-19T09:24:03;21.70;;;19.40;;
11086;SDS011;5597;47.588;9.642;2022-08-19T09:26:30;22.37;;;19.97;;
11086;SDS011;5597;47.588;9.642;2022-08-19T09:28:57;21.27;;;19.00;;
11086;SDS011;5597;47.588;9.642;2022-08-19T09:31:25;21.50;;;19.20;;
11086;SDS011;5597;47.588;9.642;2022-08-19T09:33:52;22.30;;;19.90;;
11086;SDS011;5597;47.588;9.642;2022-08-19T09:36:21;22.53;;;20.13;;
11086;SDS011;5597;47.588;9.642;2022-08-19T09:38:48;21.63;;;19.33;;
11086;SDS011;5597;47.588;9.642;2022-08-19T09:41:17;23.60;;;20.97;;
11086;SDS011;5597;47.588;9.642;2022-08-19T09:43:47;18.40;;;16.37;;
11086;SDS011;5597;47.588;9.642;2022-08-19T09:46:17;22.20;;;19.80;;
11086;SDS011;5597;47.588;9.642;2022-08-19T09:48:45;28.23;;;23.80;;
11086;SDS011;5597;47.588;9.642;2022-08-19T09:51:18;25.00;;;22.37;;
11086;SDS011;5597;47.588;9.642;2022-08-19T09:53:49;23.20;;;20.67;;
11086;SDS011;5597;47.588;9.642;2022-08-19T09:56:16;22.20;;;19.83;;
11086;SDS011;5597;47.588;9.642;2022-08-19T09:58:44;18.97;;;17.07;;
11086;SDS011;5597;47.588;9.642;2022-08-19T10:01:14;24.77;;;22.17;;
11086;SDS011;5597;47.588;9.642;2022-08-19T10:03:54;25.50;;;21.70;;
11086;SDS011;5597;47.588;9.642;2022-08-19T10:06:22;22.70;;;20.20;;
11086;SDS011;5597;47.588;9.642;2022-08-19T10:08:51;24.53;;;21.77;;
11086;SDS011;5597;47.588;9.642;2022-08-19T10:11:18;25.60;;;22.70;;
11086;SDS011;5597;47.588;9.642;2022-08-19T10:13:44;30.80;;;25.63;;
11086;SDS011;5597;47.588;9.642;2022-08-19T10:16:13;26.57;;;23.33;;
11086;SDS011;5597;47.588;9.642;2022-08-19T10:18:42;23.67;;;21.13;;
11086;SDS011;5597;47.588;9.642;2022-08-19T10:21:10;24.13;;;21.53;;
11086;SDS011;5597;47.588;9.642;2022-08-19T10:23:48;31.50;;;26.43;;
11086;SDS011;5597;47.588;9.642;2022-08-19T10:26:16;26.63;;;23.80;;
11086;SDS011;5597;47.588;9.642;2022-08-19T10:28:44;25.83;;;22.40;;
11086;SDS011;5597;47.588;9.642;2022-08-19T10:31:11;25.87;;;21.97;;
11086;SDS011;5597;47.588;9.642;2022-08-19T10:33:39;25.73;;;23.03;;
11086;SDS011;5597;47.588;9.642;2022-08-19T10:36:07;23.63;;;21.20;;
11086;SDS011;5597;47.588;9.642;2022-08-19T10:38:35;23.73;;;21.23;;
11086;SDS011;5597;47.588;9.642;2022-08-19T10:41:12;26.40;;;22.27;;
11086;SDS011;5597;47.588;9.642;2022-08-19T10:43:40;24.13;;;21.60;;
11086;SDS011;5597;47.588;9.642;2022-08-19T10:46:10;25.03;;;21.57;;
11086;SDS011;5597;47.588;9.642;2022-08-19T10:48:38;23.50;;;20.37;;
11086;SDS011;5597;47.588;9.642;2022-08-19T10:51:04;24.93;;;21.40;;
11086;SDS011;5597;47.588;9.642;2022-08-19T10:53:56;25.50;;;21.73;;
11086;SDS011;5597;47.588;9.642;2022-08-19T10:56:23;23.50;;;21.00;;
11086;SDS011;5597;47.588;9.642;2022-08-19T10:59:08;24.40;;;21.37;;
11086;SDS011;5597;47.588;9.642;2022-08-19T11:01:34;24.20;;;21.60;;
11086;SDS011;5597;47.588;9.642;2022-08-19T11:04:01;21.37;;;19.07;;
11086;SDS011;5597;47.588;9.642;2022-08-19T11:06:27;23.90;;;21.40;;
11086;SDS011;5597;47.588;9.642;2022-08-19T11:08:55;23.60;;;21.10;;
11086;SDS011;5597;47.588;9.642;2022-08-19T11:11:21;23.37;;;20.93;;
11086;SDS011;5597;47.588;9.642;2022-08-19T11:13:47;24.53;;;21.80;;
11086;SDS011;5597;47.588;9.642;2022-08-19T11:16:18;21.77;;;18.83;;
11086;SDS011;5597;47.588;9.642;2022-08-19T11:18:51;21.53;;;19.23;;
11086;SDS011;5597;47.588;9.642;2022-08-19T11:21:22;23.47;;;20.60;;
11086;SDS011;5597;47.588;9.642;2022-08-19T11:23:51;23.43;;;20.93;;
11086;SDS011;5597;47.588;9.642;2022-08-19T11:26:21;23.63;;;21.10;;
11086;SDS011;5597;47.588;9.642;2022-08-19T11:28:46;23.20;;;20.80;;
11086;SDS011;5597;47.588;9.642;2022-08-19T11:31:13;23.03;;;20.57;;
11086;SDS011;5597;47.588;9.642;2022-08-19T11:33:42;22.53;;;20.13;;
11086;SDS011;5597;47.588;9.642;2022-08-19T11:36:08;22.77;;;20.07;;
11086;SDS011;5597;47.588;9.642;2022-08-19T11:38:34;23.10;;;20.67;;
11086;SDS011;5597;47.588;9.642;2022-08-19T11:41:01;21.93;;;19.63;;
11086;SDS011;5597;47.588;9.642;2022-08-19T11:43:28;20.93;;;18.73;;
11086;SDS011;5597;47.588;9.642;2022-08-19T11:45:56;21.37;;;19.07;;
11086;SDS011;5597;47.588;9.642;2022-08-19T11:48:23;23.93;;;19.83;;
11086;SDS011;5597;47.588;9.642;2022-08-19T11:50:50;22.00;;;19.53;;
11086;SDS011;5597;47.588;9.642;2022-08-19T11:53:18;21.73;;;19.43;;
11086;SDS011;5597;47.588;9.642;2022-08-19T11:55:45;20.60;;;18.37;;
11086;SDS011;5597;47.588;9.642;2022-08-19T11:58:15;21.33;;;18.93;;
11086;SDS011;5597;47.588;9.642;2022-08-19T12:00:42;19.63;;;17.63;;
11086;SDS011;5597;47.588;9.642;2022-08-19T12:03:10;16.60;;;14.97;;
11086;SDS011;5597;47.588;9.642;2022-08-19T12:05:37;18.33;;;16.43;;
11086;SDS011;5597;47.588;9.642;2022-08-19T12:08:05;16.80;;;15.17;;
11086;SDS011;5597;47.588;9.642;2022-08-19T12:10:32;16.10;;;14.60;;
11086;SDS011;5597;47.588;9.642;2022-08-19T12:12:58;14.87;;;13.47;;
11086;SDS011;5597;47.588;9.642;2022-08-19T12:15:24;15.53;;;13.97;;
11086;SDS011;5597;47.588;9.642;2022-08-19T12:17:52;13.93;;;12.53;;
11086;SDS011;5597;47.588;9.642;2022-08-19T12:20:20;13.43;;;12.13;;
11086;SDS011;5597;47.588;9.642;2022-08-19T12:22:45;13.50;;;12.20;;
11086;SDS011;5597;47.588;9.642;2022-08-19T12:25:11;13.60;;;12.40;;
11086;SDS011;5597;47.588;9.642;2022-08-19T12:27:37;13.53;;;12.13;;
11086;SDS011;5597;47.588;9.642;2022-08-19T12:30:04;13.33;;;12.13;;
11086;SDS011;5597;47.588;9.642;2022-08-19T12:32:31;14.97;;;13.47;;
11086;SDS011;5597;47.588;9.642;2022-08-19T12:34:57;13.60;;;12.30;;
11086;SDS011;5597;47.588;9.642;2022-08-19T12:37:22;16.30;;;14.70;;
11086;SDS011;5597;47.588;9.642;2022-08-19T12:39:48;16.43;;;14.83;;
11086;SDS011;5597;47.588;9.642;2022-08-19T12:42:14;16.57;;;14.97;;
11086;SDS011;5597;47.588;9.642;2022-08-19T12:44:41;17.00;;;15.23;;
11086;SDS011;5597;47.588;9.642;2022-08-19T12:47:08;16.70;;;15.10;;
11086;SDS011;5597;47.588;9.642;2022-08-19T12:49:36;18.00;;;16.10;;
11086;SDS011;5597;47.588;9.642;2022-08-19T12:52:04;16.30;;;14.70;;
11086;SDS011;5597;47.588;9.642;2022-08-19T12:54:30;16.87;;;15.17;;
11086;SDS011;5597;47.588;9.642;2022-08-19T12:56:56;19.10;;;17.20;;
11086;SDS011;5597;47.588;9.642;2022-08-19T12:59:23;19.27;;;17.27;;
11086;SDS011;5597;47.588;9.642;2022-08-19T13:01:48;17.73;;;15.83;;
11086;SDS011;5597;47.588;9.642;2022-08-19T13:04:14;18.37;;;16.57;;
11086;SDS011;5597;47.588;9.642;2022-08-19T13:06:41;16.83;;;15.20;;
11086;SDS011;5597;47.588;9.642;2022-08-19T13:09:07;17.47;;;15.67;;
11086;SDS011;5597;47.588;9.642;2022-08-19T13:11:33;17.67;;;15.87;;
11086;SDS011;5597;47.588;9.642;2022-08-19T13:14:00;16.87;;;15.17;;
11086;SDS011;5597;47.588;9.642;2022-08-19T13:16:27;17.60;;;15.73;;
11086;SDS011;5597;47.588;9.642;2022-08-19T13:18:53;19.17;;;17.27;;
11086;SDS011;5597;47.588;9.642;2022-08-19T13:21:20;19.57;;;17.57;;
11086;SDS011;5597;47.588;9.642;2022-08-19T13:23:48;21.17;;;19.13;;
11086;SDS011;5597;47.588;9.642;2022-08-19T13:26:14;20.30;;;18.30;;
11086;SDS011;5597;47.588;9.642;2022-08-19T13:28:42;20.93;;;18.73;;
11086;SDS011;5597;47.588;9.642;2022-08-19T13:31:27;18.93;;;17.13;;
11086;SDS011;5597;47.588;9.642;2022-08-19T13:34:29;18.67;;;16.77;;
11086;SDS011;5597;47.588;9.642;2022-08-19T13:37:00;21.30;;;19.03;;
11086;SDS011;5597;47.588;9.642;2022-08-19T13:39:28;22.13;;;19.97;;
11086;SDS011;5597;47.588;9.642;2022-08-19T13:41:54;21.37;;;19.17;;
11086;SDS011;5597;47.588;9.642;2022-08-19T13:44:20;23.87;;;21.43;;
11086;SDS011;5597;47.588;9.642;2022-08-19T13:46:46;22.77;;;20.57;;
11086;SDS011;5597;47.588;9.642;2022-08-19T13:49:13;24.23;;;21.73;;
11086;SDS011;5597;47.588;9.642;2022-08-19T13:51:40;25.33;;;22.83;;
11086;SDS011;5597;47.588;9.642;2022-08-19T13:54:08;24.23;;;21.83;;
11086;SDS011;5597;47.588;9.642;2022-08-19T13:56:35;22.70;;;20.40;;
11086;SDS011;5597;47.588;9.642;2022-08-19T13:59:05;24.00;;;21.50;;
11086;SDS011;5597;47.588;9.642;2022-08-19T14:01:31;21.03;;;19.00;;
11086;SDS011;5597;47.588;9.642;2022-08-19T14:03:56;20.30;;;18.30;;
11086;SDS011;5597;47.588;9.642;2022-08-19T14:06:22;23.07;;;20.83;;
11086;SDS011;5597;47.588;9.642;2022-08-19T14:08:48;24.57;;;22.17;;
11086;SDS011;5597;47.588;9.642;2022-08-19T14:11:13;26.27;;;23.67;;
11086;SDS011;5597;47.588;9.642;2022-08-19T14:13:39;25.23;;;22.70;;
11086;SDS011;5597;47.588;9.642;2022-08-19T14:16:09;26.33;;;23.70;;
11086;SDS011;5597;47.588;9.642;2022-08-19T14:18:35;27.17;;;24.47;;
11086;SDS011;5597;47.588;9.642;2022-08-19T14:21:02;28.40;;;25.50;;
11086;SDS011;5597;47.588;9.642;2022-08-19T14:23:30;28.90;;;25.90;;
11086;SDS011;5597;47.588;9.642;2022-08-19T14:26:07;28.10;;;25.30;;
11086;SDS011;5597;47.588;9.642;2022-08-19T14:28:34;27.27;;;24.37;;
11086;SDS011;5597;47.588;9.642;2022-08-19T14:31:00;27.17;;;24.37;;
11086;SDS011;5597;47.588;9.642;2022-08-19T14:33:26;27.67;;;24.83;;
11086;SDS011;5597;47.588;9.642;2022-08-19T14:35:51;28.53;;;25.63;;
11086;SDS011;5597;47.588;9.642;2022-08-19T14:38:17;24.70;;;22.20;;
11086;SDS011;5597;47.588;9.642;2022-08-19T14:40:44;27.83;;;25.00;;
11086;SDS011;5597;47.588;9.642;2022-08-19T14:43:10;28.60;;;25.70;;
11086;SDS011;5597;47.588;9.642;2022-08-19T14:45:37;28.73;;;25.83;;
11086;SDS011;5597;47.588;9.642;2022-08-19T14:48:04;28.37;;;25.57;;
11086;SDS011;5597;47.588;9.642;2022-08-19T14:50:32;27.87;;;24.97;;
11086;SDS011;5597;47.588;9.642;2022-08-19T14:52:59;26.97;;;24.27;;
11086;SDS011;5597;47.588;9.642;2022-08-19T14:55:27;26.83;;;24.03;;